Airfield :
LOGIN :

Register | Disclaimer

   EN    FR    IT 

 










Legend :    VFR   Marginal VFR   IFR   Intensive IFR   Very Intensive IFR
Visi :
Ceiling :
>= 8 km
>= 3000ft
5 to 8 km
1000 to 3000 ft
1500m to 5 km
500 to 1000 ft
800 to 1500m
200 to 500 ft
< 800m
< 200 ft
Symbols :   Thunderstorms  Fog  Heavy snow  Heavy precipitations  Wind > 20 kt
SIGMETs :     Misc.  Thunderstorms  Icing  Turbulence  Mountain Waves  Volcanic Ashes






- Airport Elevation : 209 ft
- IATA code : CLY


LFKC - Calvi

CURRENT METAR :
  • 021430Z AUTO 34008KT 320V020 CAVOK 14/08 Q1023 NOSIG

EXPIRED METARs :
  • 021400Z AUTO 35007KT 320V030 CAVOK 14/08 Q1023 NOSIG
  • 021330Z AUTO 01007KT 330V060 CAVOK 14/08 Q1023 NOSIG
  • 021300Z AUTO 34004KT 300V060 CAVOK 14/07 Q1023 NOSIG
  • 021230Z AUTO 34007KT 310V010 9999 FEW031 14/07 Q1023 NOSIG
  • 021200Z AUTO 33010KT 300V010 CAVOK 14/07 Q1023 NOSIG

TAF TAF LFKC
Valid from the 02 at 15:00 until the 03 at 15:00 UTC


021400Z 0215/0315 33005KT CAVOK TX15/0313Z TN05/0306Z
BECMG 0217/0219 18005KT
ATIS : +33 4 95 65 82 49



MET'MAP, your aeronautical weather chart ! - Copyright ORBIFLY December 2007 - Disclaimer

ORBIFLY MET'MAP TEAM :

Programming & Development : Alexandra Zaïnal
Original concept : Baudouin d'Aumeries
Technical & hardware support : Manuel Goepfert
Assistance : Marc-Olivier Méhu




SOURCES & CREDITS :

   NOAA